首页
METAR-TAF:

METAR-TAF

机场 :

安托法加斯塔, 智利

纬度: 23-26S, 经度: 070-26W, 海拔: 135米

当前天气观测

该预报发布于20分钟前的05:00 UTC
风速6节,风向
温度 13°C
湿度 94%
气压 1016 hPa
能見度: 5000
散云层高于400英尺
阴天层高于700英尺

METAR: SCFA 230500Z 17006KT 5000 RA SCT004 OVC007 13/12 Q1016 NOSIG

时间: 02:20 (05:20 UTC)

预报

该预报发布于5小时和34分钟前的23:46 UTC
预报有效从23日的 00点(UTC)到 23日的 24点(UTC)
风速10节,风向南转西南
能见度10公里或以上
多云层高于400英尺
阴天层高于2000英尺
短暂存在
从 23日的 06点(UTC)到 23日的 10点(UTC)
多云层高于400英尺
阴天层高于1000英尺
小毛毛雨
成为
从 23日的 08点(UTC)到 23日的 10点(UTC)
风速4节,风向东南
成为
从 23日的 14点(UTC)到 23日的 16点(UTC)
风速12节,风向南转西南
少量云层高于1000英尺
散云层高于3000英尺
成为
从 23日的 20点(UTC)到 23日的 22点(UTC)
散云层高于1000英尺
多云层高于2500英尺

TAF: SCFA 222346Z 2300/2324 21010KT 9999 BKN004 OVC020 TN14/2301Z TX17/2317Z TEMPO 2306/2310 -DZ BKN004 OVC010 BECMG 2308/2310 14004KT BECMG 2314/2316 21012KT FEW010 SCT030 BECMG 2320/2322 SCT010 BKN025

超过4000个机场的气象观测和天气预报(METAR&TAF报告)。

可查询的气象台以黄色和红色小点在地图上表示。

将鼠标移到小点上方,可查看气象台名称。

然后点击查看天气观测和预报。

如需切换地图:点击带黑十字的绿色按钮放大地图;点击带横线的绿色按钮缩小地图;或者点击绿色箭头查看邻近地区的地图。


METAR-TAF: